createdAt,value
2019-02-23T00:04:41.843Z,13.40
2019-02-23T00:09:48.163Z,13.20
2019-02-23T00:14:54.494Z,13.00
2019-02-23T00:20:02.287Z,12.70
2019-02-23T00:25:09.281Z,12.70
2019-02-23T00:30:16.532Z,12.60
2019-02-23T00:35:22.643Z,12.50
2019-02-23T00:40:29.590Z,12.70
2019-02-23T00:45:35.578Z,12.70
2019-02-23T00:50:41.608Z,12.30
2019-02-23T00:55:47.947Z,12.00
2019-02-23T01:00:56.585Z,12.20
2019-02-23T01:06:02.995Z,12.20
2019-02-23T01:11:09.195Z,12.00
2019-02-23T01:16:16.375Z,11.80
2019-02-23T01:21:22.827Z,12.00
2019-02-23T01:26:29.263Z,12.10
2019-02-23T01:31:36.407Z,11.70
2019-02-23T01:36:42.770Z,11.50
2019-02-23T01:41:49.371Z,11.30
2019-02-23T01:46:57.154Z,11.20
2019-02-23T01:52:03.488Z,11.10
2019-02-23T01:57:13.517Z,11.70
2019-02-23T02:02:21.012Z,11.70
2019-02-23T02:07:31.127Z,11.70
2019-02-23T02:12:38.854Z,11.50
2019-02-23T02:17:46.422Z,11.50
2019-02-23T02:22:53.976Z,11.40
2019-02-23T02:28:01.202Z,11.00
2019-02-23T02:33:07.763Z,11.10
2019-02-23T02:38:13.960Z,11.40
2019-02-23T02:43:21.227Z,11.10
2019-02-23T02:48:28.359Z,11.30
2019-02-23T02:53:35.519Z,11.40
2019-02-23T02:58:41.540Z,11.30
2019-02-23T03:03:49.147Z,11.00
2019-02-23T03:08:56.666Z,10.70
2019-02-23T03:14:02.704Z,10.50
2019-02-23T03:19:13.536Z,10.60
2019-02-23T03:24:21.472Z,10.60
2019-02-23T03:29:28.793Z,10.40
2019-02-23T03:34:37.019Z,10.30
2019-02-23T03:39:44.284Z,10.30
2019-02-23T03:44:51.615Z,10.00
2019-02-23T03:49:59.292Z,9.80
2019-02-23T03:55:06.699Z,9.70
2019-02-23T04:00:12.806Z,9.80
2019-02-23T04:05:19.180Z,9.80
2019-02-23T04:10:26.513Z,9.70
2019-02-23T04:15:35.086Z,10.10
2019-02-23T04:20:42.835Z,10.10
2019-02-23T04:25:50.163Z,10.30
2019-02-23T04:30:56.312Z,10.30
2019-02-23T04:36:02.678Z,10.20
2019-02-23T04:41:11.652Z,10.50
2019-02-23T04:46:18.811Z,10.60
2019-02-23T04:51:26.144Z,10.80
2019-02-23T04:56:32.449Z,10.60
2019-02-23T05:01:39.645Z,10.50
2019-02-23T05:06:47.371Z,10.50
2019-02-23T05:11:53.465Z,10.60
2019-02-23T05:17:01.166Z,10.50
2019-02-23T05:22:09.010Z,10.70
2019-02-23T05:27:15.284Z,10.70
2019-02-23T05:32:21.644Z,10.70
2019-02-23T05:37:27.989Z,10.70
2019-02-23T05:42:34.226Z,10.60
2019-02-23T05:47:43.583Z,10.60
2019-02-23T05:52:51.147Z,10.60
2019-02-23T05:57:58.685Z,10.70
2019-02-23T06:03:04.939Z,10.60
2019-02-23T06:08:12.803Z,10.70
2019-02-23T06:13:19.263Z,10.80
2019-02-23T06:18:27.448Z,10.40
2019-02-23T06:23:34.405Z,10.30
2019-02-23T06:28:41.616Z,10.40
2019-02-23T06:33:47.934Z,9.90
2019-02-23T06:38:54.163Z,10.20
2019-02-23T06:44:01.552Z,10.50
2019-02-23T06:49:08.272Z,10.10
2019-02-23T06:54:14.265Z,10.40
2019-02-23T06:59:21.691Z,10.60
2019-02-23T07:04:28.004Z,10.50
2019-02-23T07:09:34.509Z,10.70
2019-02-23T07:14:41.182Z,10.80
2019-02-23T07:19:49.002Z,11.00
2019-02-23T07:24:55.387Z,11.10
2019-02-23T07:30:01.664Z,11.20
2019-02-23T07:35:08.530Z,11.60
2019-02-23T07:40:14.498Z,11.90
2019-02-23T07:45:23.851Z,12.50
2019-02-23T07:50:31.095Z,12.70
2019-02-23T07:55:38.759Z,13.00
2019-02-23T08:00:44.886Z,13.20
2019-02-23T08:05:52.278Z,13.50
2019-02-23T08:10:59.916Z,13.50
2019-02-23T08:16:06.181Z,13.60
2019-02-23T08:21:12.220Z,13.70
2019-02-23T08:26:20.244Z,13.80
2019-02-23T08:31:26.539Z,14.00
2019-02-23T08:36:32.707Z,14.10
2019-02-23T08:41:39.500Z,14.40
2019-02-23T08:46:49.334Z,14.70
2019-02-23T08:51:58.930Z,15.00
2019-02-23T08:57:04.946Z,15.10
2019-02-23T09:02:11.366Z,15.20
2019-02-23T09:07:19.761Z,15.10
2019-02-23T09:12:25.696Z,14.90
2019-02-23T09:17:31.880Z,14.80
2019-02-23T09:22:39.464Z,14.90
2019-02-23T09:27:45.785Z,15.10
2019-02-23T09:32:51.974Z,15.30
2019-02-23T09:37:59.278Z,15.50
2019-02-23T09:43:06.602Z,15.40
2019-02-23T09:48:12.611Z,15.40
2019-02-23T09:53:19.417Z,15.50
2019-02-23T09:58:31.236Z,15.60
2019-02-23T10:03:38.827Z,15.60
2019-02-23T10:08:45.107Z,15.70
2019-02-23T10:13:51.735Z,16.00
2019-02-23T10:18:58.624Z,16.40
2019-02-23T10:24:06.486Z,16.50
2019-02-23T10:29:12.947Z,17.00
2019-02-23T10:34:19.568Z,17.00
2019-02-23T10:39:27.177Z,17.10
2019-02-23T10:44:33.507Z,17.30
2019-02-23T10:49:41.459Z,17.60
2019-02-23T10:54:48.923Z,17.90
2019-02-23T10:59:55.253Z,18.20
2019-02-23T11:05:02.847Z,19.00
2019-02-23T11:10:10.619Z,19.60
2019-02-23T11:15:19.378Z,19.80
2019-02-23T11:20:26.281Z,19.70
2019-02-23T11:25:32.587Z,19.90
2019-02-23T11:30:40.262Z,20.30
2019-02-23T11:35:47.415Z,20.50
2019-02-23T11:40:53.523Z,21.00
2019-02-23T11:46:01.383Z,20.90
2019-02-23T11:51:08.549Z,20.80
2019-02-23T11:56:15.227Z,20.90
2019-02-23T12:01:21.779Z,21.20
2019-02-23T12:06:28.105Z,20.90
2019-02-23T12:11:34.271Z,21.40
2019-02-23T12:16:42.209Z,21.30
2019-02-23T12:21:49.302Z,21.70
2019-02-23T12:26:56.483Z,21.30
2019-02-23T12:32:02.658Z,21.30
2019-02-23T12:37:10.081Z,21.10
2019-02-23T12:42:17.311Z,20.90
2019-02-23T12:47:23.507Z,20.90
2019-02-23T12:52:31.413Z,20.70
2019-02-23T12:57:39.379Z,20.70
2019-02-23T13:02:46.602Z,20.80
2019-02-23T13:07:52.671Z,19.80
2019-02-23T13:13:19.402Z,19.90
2019-02-23T13:19:09.680Z,20.00
2019-02-23T13:24:58.323Z,20.00
2019-02-23T13:30:40.721Z,20.00
2019-02-23T13:36:26.493Z,20.30
2019-02-23T13:41:45.868Z,21.20
2019-02-23T13:47:25.286Z,22.10
2019-02-23T13:53:09.923Z,22.30
2019-02-23T13:59:03.568Z,22.50
2019-02-23T14:04:53.947Z,22.50
2019-02-23T14:10:42.776Z,23.40
2019-02-23T14:16:23.071Z,23.30
2019-02-23T14:22:08.533Z,23.20
2019-02-23T14:27:46.780Z,23.60
2019-02-23T14:33:33.533Z,23.30
2019-02-23T14:39:22.580Z,23.60
2019-02-23T14:45:15.028Z,23.30
2019-02-23T14:50:47.502Z,23.30
2019-02-23T14:56:29.380Z,23.80
2019-02-23T15:01:58.771Z,23.90
2019-02-23T15:07:28.918Z,23.40
2019-02-23T15:13:27.723Z,23.40
2019-02-23T15:19:15.743Z,23.10
2019-02-23T15:25:13.163Z,22.90
2019-02-23T15:30:31.182Z,23.30
2019-02-23T15:36:12.407Z,22.80
2019-02-23T15:41:39.995Z,22.40
2019-02-23T15:47:28.478Z,21.20
2019-02-23T15:52:34.808Z,20.90
2019-02-23T15:57:42.794Z,21.40
2019-02-23T16:02:49.757Z,21.30
2019-02-23T16:07:56.762Z,20.80
2019-02-23T16:13:04.456Z,20.90
2019-02-23T16:18:11.925Z,20.60
2019-02-23T16:23:19.804Z,20.40
2019-02-23T16:28:27.556Z,19.70
2019-02-23T16:33:34.695Z,19.00
2019-02-23T16:38:41.279Z,18.70
2019-02-23T16:43:47.931Z,18.10
2019-02-23T16:48:54.296Z,18.00
2019-02-23T16:54:02.026Z,17.70
2019-02-23T16:59:08.910Z,17.20
2019-02-23T17:04:15.179Z,16.60
2019-02-23T17:09:21.766Z,16.60
2019-02-23T17:14:28.563Z,16.40
2019-02-23T17:19:34.886Z,15.90
2019-02-23T17:24:41.275Z,15.80
2019-02-23T17:29:48.286Z,15.60
2019-02-23T17:34:54.556Z,15.50
2019-02-23T17:40:02.402Z,15.20
2019-02-23T17:45:09.957Z,15.30
2019-02-23T17:50:16.702Z,15.10
2019-02-23T17:55:25.827Z,14.90
2019-02-23T18:00:32.165Z,14.80
2019-02-23T18:05:40.271Z,14.60
2019-02-23T18:10:47.888Z,14.60
2019-02-23T18:15:54.267Z,14.50
2019-02-23T18:21:02.636Z,14.50
2019-02-23T18:26:09.522Z,14.40
2019-02-23T18:31:19.092Z,14.50
2019-02-23T18:36:27.519Z,14.30
2019-02-23T18:41:33.639Z,14.30
2019-02-23T18:46:40.829Z,14.10
2019-02-23T18:51:48.776Z,14.10
2019-02-23T18:56:55.142Z,14.20
2019-02-23T19:02:01.442Z,14.00
2019-02-23T19:07:08.729Z,13.80
2019-02-23T19:12:15.137Z,13.70
2019-02-23T19:17:22.754Z,13.60
2019-02-23T19:22:29.681Z,13.60
2019-02-23T19:27:37.308Z,13.70
2019-02-23T19:32:45.175Z,13.70
2019-02-23T19:37:52.077Z,13.60
2019-02-23T19:43:00.656Z,13.70
2019-02-23T19:48:10.706Z,13.60
2019-02-23T19:53:18.696Z,13.50
2019-02-23T19:58:25.207Z,13.50
2019-02-23T20:03:31.603Z,13.50
2019-02-23T20:08:39.899Z,13.60
2019-02-23T20:13:47.806Z,13.70
2019-02-23T20:18:54.995Z,13.70
2019-02-23T20:24:01.434Z,13.50
2019-02-23T20:29:08.195Z,13.50
2019-02-23T20:34:14.525Z,13.60
2019-02-23T20:39:21.513Z,13.60
2019-02-23T20:44:28.827Z,13.60
2019-02-23T20:49:35.355Z,13.60
2019-02-23T20:54:41.756Z,13.60
2019-02-23T20:59:51.894Z,13.50
2019-02-23T21:04:59.726Z,13.30
2019-02-23T21:10:07.146Z,13.30
2019-02-23T21:15:13.756Z,13.20
2019-02-23T21:20:21.600Z,13.20
2019-02-23T21:25:28.097Z,13.00
2019-02-23T21:30:34.651Z,12.90
2019-02-23T21:35:43.304Z,12.90
2019-02-23T21:40:50.668Z,12.80
2019-02-23T21:45:57.819Z,12.80
2019-02-23T21:51:04.002Z,12.70
2019-02-23T21:56:11.432Z,12.90
2019-02-23T22:01:19.195Z,12.70
2019-02-23T22:06:26.628Z,12.10
2019-02-23T22:11:33.211Z,11.60
2019-02-23T22:16:41.285Z,11.70
2019-02-23T22:21:48.120Z,11.70
2019-02-23T22:26:54.388Z,11.50
2019-02-23T22:32:01.344Z,11.60
2019-02-23T22:37:08.633Z,11.70
2019-02-23T22:42:15.592Z,12.10
2019-02-23T22:47:21.975Z,12.20
2019-02-23T22:52:30.407Z,12.30
2019-02-23T22:57:40.561Z,12.30
2019-02-23T23:02:44.894Z,12.30
2019-02-23T23:07:51.655Z,12.30
2019-02-23T23:12:58.693Z,12.30
2019-02-23T23:18:04.757Z,12.40
2019-02-23T23:23:12.757Z,12.40
2019-02-23T23:28:20.399Z,12.20
2019-02-23T23:33:27.590Z,12.10
2019-02-23T23:38:33.901Z,11.90
2019-02-23T23:43:41.286Z,11.80
2019-02-23T23:48:48.943Z,11.80
2019-02-23T23:53:55.365Z,11.40
2019-02-23T23:59:01.909Z,11.10
